sensor_id;sensor_type;location;lat;lon;timestamp;temperature;humidity
5870;DHT22;2961;47.702;9.410;2022-07-29T00:01:43;18.00;99.90
5870;DHT22;2961;47.702;9.410;2022-07-29T00:04:10;18.00;99.90
5870;DHT22;2961;47.702;9.410;2022-07-29T00:06:37;18.00;99.90
5870;DHT22;2961;47.702;9.410;2022-07-29T00:09:06;18.00;99.90
5870;DHT22;2961;47.702;9.410;2022-07-29T00:11:33;18.00;99.90
5870;DHT22;2961;47.702;9.410;2022-07-29T00:14:00;17.90;99.90
5870;DHT22;2961;47.702;9.410;2022-07-29T00:16:27;17.90;99.90
5870;DHT22;2961;47.702;9.410;2022-07-29T00:18:54;17.90;99.90
5870;DHT22;2961;47.702;9.410;2022-07-29T00:21:21;17.90;99.90
5870;DHT22;2961;47.702;9.410;2022-07-29T00:23:48;17.90;99.90
5870;DHT22;2961;47.702;9.410;2022-07-29T00:26:16;17.80;99.90
5870;DHT22;2961;47.702;9.410;2022-07-29T00:28:43;17.80;99.90
5870;DHT22;2961;47.702;9.410;2022-07-29T00:31:09;17.80;99.90
5870;DHT22;2961;47.702;9.410;2022-07-29T00:33:36;17.80;99.90
5870;DHT22;2961;47.702;9.410;2022-07-29T00:36:04;17.90;99.90
5870;DHT22;2961;47.702;9.410;2022-07-29T00:38:30;17.90;99.90
5870;DHT22;2961;47.702;9.410;2022-07-29T00:40:56;17.80;99.90
5870;DHT22;2961;47.702;9.410;2022-07-29T00:43:25;17.80;99.90
5870;DHT22;2961;47.702;9.410;2022-07-29T00:45:52;17.80;99.90
5870;DHT22;2961;47.702;9.410;2022-07-29T00:48:19;17.80;99.90
5870;DHT22;2961;47.702;9.410;2022-07-29T00:50:46;17.80;99.90
5870;DHT22;2961;47.702;9.410;2022-07-29T00:53:13;17.80;99.90
5870;DHT22;2961;47.702;9.410;2022-07-29T00:55:40;17.80;99.90
5870;DHT22;2961;47.702;9.410;2022-07-29T00:58:07;17.80;99.90
5870;DHT22;2961;47.702;9.410;2022-07-29T01:00:35;17.80;99.90
5870;DHT22;2961;47.702;9.410;2022-07-29T01:03:02;17.70;99.90
5870;DHT22;2961;47.702;9.410;2022-07-29T01:05:30;17.70;99.90
5870;DHT22;2961;47.702;9.410;2022-07-29T01:07:57;17.70;99.90
5870;DHT22;2961;47.702;9.410;2022-07-29T01:10:25;17.70;99.90
5870;DHT22;2961;47.702;9.410;2022-07-29T01:12:55;17.70;99.90
5870;DHT22;2961;47.702;9.410;2022-07-29T01:15:23;17.60;99.90
5870;DHT22;2961;47.702;9.410;2022-07-29T01:17:59;17.50;99.90
5870;DHT22;2961;47.702;9.410;2022-07-29T01:20:41;17.60;99.90
5870;DHT22;2961;47.702;9.410;2022-07-29T01:23:47;17.70;99.90
5870;DHT22;2961;47.702;9.410;2022-07-29T01:26:41;17.80;99.90
5870;DHT22;2961;47.702;9.410;2022-07-29T01:29:17;17.80;99.90
5870;DHT22;2961;47.702;9.410;2022-07-29T01:31:48;17.80;99.90
5870;DHT22;2961;47.702;9.410;2022-07-29T01:34:20;17.90;99.90
5870;DHT22;2961;47.702;9.410;2022-07-29T01:36:51;17.90;99.90
5870;DHT22;2961;47.702;9.410;2022-07-29T01:39:23;17.90;99.90
5870;DHT22;2961;47.702;9.410;2022-07-29T01:41:59;17.90;99.90
5870;DHT22;2961;47.702;9.410;2022-07-29T01:44:32;17.90;99.90
5870;DHT22;2961;47.702;9.410;2022-07-29T01:47:04;17.90;99.90
5870;DHT22;2961;47.702;9.410;2022-07-29T01:49:36;17.90;99.90
5870;DHT22;2961;47.702;9.410;2022-07-29T01:52:07;17.90;99.90
5870;DHT22;2961;47.702;9.410;2022-07-29T01:54:37;17.80;99.90
5870;DHT22;2961;47.702;9.410;2022-07-29T01:57:10;17.70;99.90
5870;DHT22;2961;47.702;9.410;2022-07-29T01:59:40;17.60;99.90
5870;DHT22;2961;47.702;9.410;2022-07-29T02:02:10;17.70;99.90
5870;DHT22;2961;47.702;9.410;2022-07-29T02:04:39;17.70;99.90
5870;DHT22;2961;47.702;9.410;2022-07-29T02:07:08;17.70;99.90
5870;DHT22;2961;47.702;9.410;2022-07-29T02:09:39;17.70;99.90
5870;DHT22;2961;47.702;9.410;2022-07-29T02:12:07;17.60;99.90
5870;DHT22;2961;47.702;9.410;2022-07-29T02:14:40;17.60;99.90
5870;DHT22;2961;47.702;9.410;2022-07-29T02:17:11;17.50;99.90
5870;DHT22;2961;47.702;9.410;2022-07-29T02:19:39;17.40;99.90
5870;DHT22;2961;47.702;9.410;2022-07-29T02:22:09;17.40;99.90
5870;DHT22;2961;47.702;9.410;2022-07-29T02:24:38;17.40;99.90
5870;DHT22;2961;47.702;9.410;2022-07-29T02:27:07;17.30;99.90
5870;DHT22;2961;47.702;9.410;2022-07-29T02:29:35;17.20;99.90
5870;DHT22;2961;47.702;9.410;2022-07-29T02:32:06;17.10;99.90
5870;DHT22;2961;47.702;9.410;2022-07-29T02:34:35;17.10;99.90
5870;DHT22;2961;47.702;9.410;2022-07-29T02:37:05;17.10;99.90
5870;DHT22;2961;47.702;9.410;2022-07-29T02:39:32;17.00;99.90
5870;DHT22;2961;47.702;9.410;2022-07-29T02:42:02;17.00;99.90
5870;DHT22;2961;47.702;9.410;2022-07-29T02:44:30;17.00;99.90
5870;DHT22;2961;47.702;9.410;2022-07-29T02:47:03;16.90;99.90
5870;DHT22;2961;47.702;9.410;2022-07-29T02:49:36;16.90;99.90
5870;DHT22;2961;47.702;9.410;2022-07-29T02:52:08;16.90;99.90
5870;DHT22;2961;47.702;9.410;2022-07-29T02:54:39;16.90;99.90
5870;DHT22;2961;47.702;9.410;2022-07-29T02:57:11;16.90;99.90
5870;DHT22;2961;47.702;9.410;2022-07-29T02:59:42;16.90;99.90
5870;DHT22;2961;47.702;9.410;2022-07-29T03:02:12;16.90;99.90
5870;DHT22;2961;47.702;9.410;2022-07-29T03:04:42;16.90;99.90
5870;DHT22;2961;47.702;9.410;2022-07-29T03:07:11;16.90;99.90
5870;DHT22;2961;47.702;9.410;2022-07-29T03:09:40;16.90;99.90
5870;DHT22;2961;47.702;9.410;2022-07-29T03:12:08;16.80;99.90
5870;DHT22;2961;47.702;9.410;2022-07-29T03:14:36;16.80;99.90
5870;DHT22;2961;47.702;9.410;2022-07-29T03:17:03;16.80;99.90
5870;DHT22;2961;47.702;9.410;2022-07-29T03:19:31;16.80;99.90
5870;DHT22;2961;47.702;9.410;2022-07-29T03:21:59;16.70;99.90
5870;DHT22;2961;47.702;9.410;2022-07-29T03:24:29;16.70;99.90
5870;DHT22;2961;47.702;9.410;2022-07-29T03:26:56;16.70;99.90
5870;DHT22;2961;47.702;9.410;2022-07-29T03:29:23;16.70;99.90
5870;DHT22;2961;47.702;9.410;2022-07-29T03:31:51;16.70;99.90
5870;DHT22;2961;47.702;9.410;2022-07-29T03:34:17;16.70;99.90
5870;DHT22;2961;47.702;9.410;2022-07-29T03:36:47;16.70;99.90
5870;DHT22;2961;47.702;9.410;2022-07-29T03:39:18;16.60;99.90
5870;DHT22;2961;47.702;9.410;2022-07-29T03:41:47;16.70;99.90
5870;DHT22;2961;47.702;9.410;2022-07-29T03:44:16;16.70;99.90
5870;DHT22;2961;47.702;9.410;2022-07-29T03:46:44;16.60;99.90
5870;DHT22;2961;47.702;9.410;2022-07-29T03:49:15;16.60;99.90
5870;DHT22;2961;47.702;9.410;2022-07-29T03:51:43;16.60;99.90
5870;DHT22;2961;47.702;9.410;2022-07-29T03:54:10;16.60;99.90
5870;DHT22;2961;47.702;9.410;2022-07-29T03:56:40;16.60;99.90
5870;DHT22;2961;47.702;9.410;2022-07-29T03:59:10;16.60;99.90
5870;DHT22;2961;47.702;9.410;2022-07-29T04:01:38;16.60;99.90
5870;DHT22;2961;47.702;9.410;2022-07-29T04:04:06;16.60;99.90
5870;DHT22;2961;47.702;9.410;2022-07-29T04:06:38;16.70;99.90
5870;DHT22;2961;47.702;9.410;2022-07-29T04:09:05;16.60;99.90
5870;DHT22;2961;47.702;9.410;2022-07-29T04:11:33;16.70;99.90
5870;DHT22;2961;47.702;9.410;2022-07-29T04:14:02;16.80;99.90
5870;DHT22;2961;47.702;9.410;2022-07-29T04:16:28;16.80;99.90
5870;DHT22;2961;47.702;9.410;2022-07-29T04:18:55;16.90;99.90
5870;DHT22;2961;47.702;9.410;2022-07-29T04:21:22;17.00;99.90
5870;DHT22;2961;47.702;9.410;2022-07-29T04:23:49;17.10;99.90
5870;DHT22;2961;47.702;9.410;2022-07-29T04:26:16;17.20;99.90
5870;DHT22;2961;47.702;9.410;2022-07-29T04:28:43;17.20;99.90
5870;DHT22;2961;47.702;9.410;2022-07-29T04:31:12;17.20;99.90
5870;DHT22;2961;47.702;9.410;2022-07-29T04:33:39;17.30;99.90
5870;DHT22;2961;47.702;9.410;2022-07-29T04:36:06;17.30;99.90
5870;DHT22;2961;47.702;9.410;2022-07-29T04:38:33;17.30;99.90
5870;DHT22;2961;47.702;9.410;2022-07-29T04:41:00;17.30;99.90
5870;DHT22;2961;47.702;9.410;2022-07-29T04:43:26;17.30;99.90
5870;DHT22;2961;47.702;9.410;2022-07-29T04:45:53;17.30;99.90
5870;DHT22;2961;47.702;9.410;2022-07-29T04:48:21;17.30;99.90
5870;DHT22;2961;47.702;9.410;2022-07-29T04:50:48;17.30;99.90
5870;DHT22;2961;47.702;9.410;2022-07-29T04:53:15;17.30;99.90
5870;DHT22;2961;47.702;9.410;2022-07-29T04:55:42;17.40;99.90
5870;DHT22;2961;47.702;9.410;2022-07-29T04:58:09;17.40;99.90
5870;DHT22;2961;47.702;9.410;2022-07-29T05:00:36;17.50;99.90
5870;DHT22;2961;47.702;9.410;2022-07-29T05:03:03;17.50;99.90
5870;DHT22;2961;47.702;9.410;2022-07-29T05:05:31;17.50;99.90
5870;DHT22;2961;47.702;9.410;2022-07-29T05:07:58;17.50;99.90
5870;DHT22;2961;47.702;9.410;2022-07-29T05:10:25;17.60;99.90
5870;DHT22;2961;47.702;9.410;2022-07-29T05:12:52;17.60;99.90
5870;DHT22;2961;47.702;9.410;2022-07-29T05:15:19;17.50;99.90
5870;DHT22;2961;47.702;9.410;2022-07-29T05:17:46;17.60;99.90
5870;DHT22;2961;47.702;9.410;2022-07-29T05:20:13;17.60;99.90
5870;DHT22;2961;47.702;9.410;2022-07-29T05:22:41;17.60;99.90
5870;DHT22;2961;47.702;9.410;2022-07-29T05:25:08;17.60;99.90
5870;DHT22;2961;47.702;9.410;2022-07-29T05:27:35;17.60;99.90
5870;DHT22;2961;47.702;9.410;2022-07-29T05:30:03;17.60;99.90
5870;DHT22;2961;47.702;9.410;2022-07-29T05:32:30;17.60;99.90
5870;DHT22;2961;47.702;9.410;2022-07-29T05:34:57;17.70;99.90
5870;DHT22;2961;47.702;9.410;2022-07-29T05:37:24;17.80;99.90
5870;DHT22;2961;47.702;9.410;2022-07-29T05:39:52;17.80;99.90
5870;DHT22;2961;47.702;9.410;2022-07-29T05:42:18;17.90;99.90
5870;DHT22;2961;47.702;9.410;2022-07-29T05:44:45;17.90;99.90
5870;DHT22;2961;47.702;9.410;2022-07-29T05:47:12;17.90;99.90
5870;DHT22;2961;47.702;9.410;2022-07-29T05:49:39;18.00;99.90
5870;DHT22;2961;47.702;9.410;2022-07-29T05:52:06;17.90;99.90
5870;DHT22;2961;47.702;9.410;2022-07-29T05:54:34;17.90;99.90
5870;DHT22;2961;47.702;9.410;2022-07-29T05:57:02;17.90;99.90
5870;DHT22;2961;47.702;9.410;2022-07-29T05:59:29;17.90;99.90
5870;DHT22;2961;47.702;9.410;2022-07-29T06:01:56;18.00;99.90
5870;DHT22;2961;47.702;9.410;2022-07-29T06:04:23;18.00;99.90
5870;DHT22;2961;47.702;9.410;2022-07-29T06:06:50;18.00;99.90
5870;DHT22;2961;47.702;9.410;2022-07-29T06:09:17;18.00;99.90
5870;DHT22;2961;47.702;9.410;2022-07-29T06:11:44;17.90;99.90
5870;DHT22;2961;47.702;9.410;2022-07-29T06:14:12;17.90;99.90
5870;DHT22;2961;47.702;9.410;2022-07-29T06:16:39;18.00;99.90
5870;DHT22;2961;47.702;9.410;2022-07-29T06:19:06;18.10;99.90
5870;DHT22;2961;47.702;9.410;2022-07-29T06:21:33;18.10;99.90
5870;DHT22;2961;47.702;9.410;2022-07-29T06:24:00;18.10;99.90
5870;DHT22;2961;47.702;9.410;2022-07-29T06:26:27;18.00;99.90
5870;DHT22;2961;47.702;9.410;2022-07-29T06:28:54;18.00;99.90
5870;DHT22;2961;47.702;9.410;2022-07-29T06:31:22;18.10;99.90
5870;DHT22;2961;47.702;9.410;2022-07-29T06:33:49;18.20;99.90
5870;DHT22;2961;47.702;9.410;2022-07-29T06:36:16;18.40;99.90
5870;DHT22;2961;47.702;9.410;2022-07-29T06:38:42;18.50;99.90
5870;DHT22;2961;47.702;9.410;2022-07-29T06:41:09;18.70;99.90
5870;DHT22;2961;47.702;9.410;2022-07-29T06:43:39;18.80;99.90
5870;DHT22;2961;47.702;9.410;2022-07-29T06:46:09;19.00;99.90
5870;DHT22;2961;47.702;9.410;2022-07-29T06:48:37;19.20;99.90
5870;DHT22;2961;47.702;9.410;2022-07-29T06:51:05;19.30;99.90
5870;DHT22;2961;47.702;9.410;2022-07-29T06:53:33;19.50;99.90
5870;DHT22;2961;47.702;9.410;2022-07-29T06:56:01;19.70;99.90
5870;DHT22;2961;47.702;9.410;2022-07-29T06:58:28;19.70;99.90
5870;DHT22;2961;47.702;9.410;2022-07-29T07:00:56;19.90;99.90
5870;DHT22;2961;47.702;9.410;2022-07-29T07:03:23;20.10;99.90
5870;DHT22;2961;47.702;9.410;2022-07-29T07:05:51;20.20;99.90
5870;DHT22;2961;47.702;9.410;2022-07-29T07:08:18;20.70;99.90
5870;DHT22;2961;47.702;9.410;2022-07-29T07:10:46;21.20;99.90
5870;DHT22;2961;47.702;9.410;2022-07-29T07:13:13;21.60;99.90
5870;DHT22;2961;47.702;9.410;2022-07-29T07:15:40;21.80;99.90
5870;DHT22;2961;47.702;9.410;2022-07-29T07:18:07;22.10;99.90
5870;DHT22;2961;47.702;9.410;2022-07-29T07:20:35;22.10;99.90
5870;DHT22;2961;47.702;9.410;2022-07-29T07:23:03;22.20;99.90
5870;DHT22;2961;47.702;9.410;2022-07-29T07:25:30;22.20;99.90
5870;DHT22;2961;47.702;9.410;2022-07-29T07:27:57;22.30;99.90
5870;DHT22;2961;47.702;9.410;2022-07-29T07:30:24;22.60;99.90
5870;DHT22;2961;47.702;9.410;2022-07-29T07:32:51;22.80;99.90
5870;DHT22;2961;47.702;9.410;2022-07-29T07:35:18;22.90;99.90
5870;DHT22;2961;47.702;9.410;2022-07-29T07:37:45;22.90;99.90
5870;DHT22;2961;47.702;9.410;2022-07-29T07:40:14;23.00;99.90
5870;DHT22;2961;47.702;9.410;2022-07-29T07:42:41;23.10;99.90
5870;DHT22;2961;47.702;9.410;2022-07-29T07:45:09;23.20;99.90
5870;DHT22;2961;47.702;9.410;2022-07-29T07:47:37;23.50;99.90
5870;DHT22;2961;47.702;9.410;2022-07-29T07:50:06;23.60;99.90
5870;DHT22;2961;47.702;9.410;2022-07-29T07:52:34;23.80;99.90
5870;DHT22;2961;47.702;9.410;2022-07-29T07:55:01;24.00;99.90
5870;DHT22;2961;47.702;9.410;2022-07-29T07:57:29;24.40;99.90
5870;DHT22;2961;47.702;9.410;2022-07-29T07:59:56;24.20;99.90
5870;DHT22;2961;47.702;9.410;2022-07-29T08:02:23;24.10;99.90
5870;DHT22;2961;47.702;9.410;2022-07-29T08:04:50;23.90;99.90
5870;DHT22;2961;47.702;9.410;2022-07-29T08:07:17;23.80;99.90
5870;DHT22;2961;47.702;9.410;2022-07-29T08:09:44;23.90;99.90
5870;DHT22;2961;47.702;9.410;2022-07-29T08:12:11;23.90;99.90
5870;DHT22;2961;47.702;9.410;2022-07-29T08:14:39;23.90;99.90
5870;DHT22;2961;47.702;9.410;2022-07-29T08:17:06;23.90;99.90
5870;DHT22;2961;47.702;9.410;2022-07-29T08:19:32;23.90;99.90
5870;DHT22;2961;47.702;9.410;2022-07-29T08:21:59;24.00;99.90
5870;DHT22;2961;47.702;9.410;2022-07-29T08:24:26;23.80;99.90
5870;DHT22;2961;47.702;9.410;2022-07-29T08:27:18;23.80;99.90
5870;DHT22;2961;47.702;9.410;2022-07-29T08:29:46;24.20;99.90
5870;DHT22;2961;47.702;9.410;2022-07-29T08:32:13;24.80;99.90
5870;DHT22;2961;47.702;9.410;2022-07-29T08:34:40;25.20;99.90
5870;DHT22;2961;47.702;9.410;2022-07-29T08:37:07;25.30;99.90
5870;DHT22;2961;47.702;9.410;2022-07-29T08:39:34;25.70;99.90
5870;DHT22;2961;47.702;9.410;2022-07-29T08:42:01;25.80;99.90
5870;DHT22;2961;47.702;9.410;2022-07-29T08:44:29;25.90;99.90
5870;DHT22;2961;47.702;9.410;2022-07-29T08:46:59;26.00;99.90
5870;DHT22;2961;47.702;9.410;2022-07-29T08:49:26;25.60;99.90
5870;DHT22;2961;47.702;9.410;2022-07-29T08:51:53;25.20;99.90
5870;DHT22;2961;47.702;9.410;2022-07-29T08:54:22;24.80;99.90
5870;DHT22;2961;47.702;9.410;2022-07-29T08:56:50;24.70;99.90
5870;DHT22;2961;47.702;9.410;2022-07-29T08:59:20;24.60;99.90
5870;DHT22;2961;47.702;9.410;2022-07-29T09:01:48;24.30;99.90
5870;DHT22;2961;47.702;9.410;2022-07-29T09:04:19;24.00;99.90
5870;DHT22;2961;47.702;9.410;2022-07-29T09:06:47;23.90;99.90
5870;DHT22;2961;47.702;9.410;2022-07-29T09:09:15;23.60;99.90
5870;DHT22;2961;47.702;9.410;2022-07-29T09:11:42;23.40;99.90
5870;DHT22;2961;47.702;9.410;2022-07-29T09:14:11;23.30;99.90
5870;DHT22;2961;47.702;9.410;2022-07-29T09:16:49;23.10;99.90
5870;DHT22;2961;47.702;9.410;2022-07-29T09:19:23;23.10;99.90
5870;DHT22;2961;47.702;9.410;2022-07-29T09:21:50;23.00;99.90
5870;DHT22;2961;47.702;9.410;2022-07-29T09:24:42;22.90;99.90
5870;DHT22;2961;47.702;9.410;2022-07-29T09:27:21;23.00;99.90
5870;DHT22;2961;47.702;9.410;2022-07-29T09:29:55;23.00;99.90
5870;DHT22;2961;47.702;9.410;2022-07-29T09:32:23;23.00;99.90
5870;DHT22;2961;47.702;9.410;2022-07-29T09:35:15;23.00;99.90
5870;DHT22;2961;47.702;9.410;2022-07-29T09:37:43;22.90;99.90
5870;DHT22;2961;47.702;9.410;2022-07-29T09:40:14;22.90;99.90
5870;DHT22;2961;47.702;9.410;2022-07-29T09:42:42;22.70;99.90
5870;DHT22;2961;47.702;9.410;2022-07-29T09:45:09;22.50;99.90
5870;DHT22;2961;47.702;9.410;2022-07-29T09:47:45;22.40;99.90
5870;DHT22;2961;47.702;9.410;2022-07-29T09:50:15;22.30;99.90
5870;DHT22;2961;47.702;9.410;2022-07-29T09:52:46;22.20;99.90
5870;DHT22;2961;47.702;9.410;2022-07-29T09:55:13;22.10;99.90
5870;DHT22;2961;47.702;9.410;2022-07-29T09:57:43;21.80;99.90
5870;DHT22;2961;47.702;9.410;2022-07-29T10:00:17;21.60;99.90
5870;DHT22;2961;47.702;9.410;2022-07-29T10:02:46;21.40;99.90
5870;DHT22;2961;47.702;9.410;2022-07-29T10:05:19;21.20;99.90
5870;DHT22;2961;47.702;9.410;2022-07-29T10:07:53;21.00;99.90
5870;DHT22;2961;47.702;9.410;2022-07-29T10:10:22;20.70;99.90
5870;DHT22;2961;47.702;9.410;2022-07-29T10:12:55;20.60;99.90
5870;DHT22;2961;47.702;9.410;2022-07-29T10:15:26;20.50;99.90
5870;DHT22;2961;47.702;9.410;2022-07-29T10:17:55;20.50;99.90
5870;DHT22;2961;47.702;9.410;2022-07-29T10:20:27;20.50;99.90
5870;DHT22;2961;47.702;9.410;2022-07-29T10:22:54;20.40;99.90
5870;DHT22;2961;47.702;9.410;2022-07-29T10:25:22;20.50;99.90
5870;DHT22;2961;47.702;9.410;2022-07-29T10:27:54;20.60;99.90
5870;DHT22;2961;47.702;9.410;2022-07-29T10:30:27;20.60;99.90
5870;DHT22;2961;47.702;9.410;2022-07-29T10:33:10;20.80;99.90
5870;DHT22;2961;47.702;9.410;2022-07-29T10:35:59;20.90;99.90
5870;DHT22;2961;47.702;9.410;2022-07-29T10:38:47;21.10;99.90
5870;DHT22;2961;47.702;9.410;2022-07-29T10:41:47;21.20;99.90
5870;DHT22;2961;47.702;9.410;2022-07-29T10:44:20;21.50;99.90
5870;DHT22;2961;47.702;9.410;2022-07-29T10:46:48;21.80;99.90
5870;DHT22;2961;47.702;9.410;2022-07-29T10:49:17;22.00;99.90
5870;DHT22;2961;47.702;9.410;2022-07-29T10:52:00;22.20;99.90
5870;DHT22;2961;47.702;9.410;2022-07-29T10:54:42;22.50;99.90
5870;DHT22;2961;47.702;9.410;2022-07-29T10:57:18;22.70;99.90
5870;DHT22;2961;47.702;9.410;2022-07-29T10:59:47;22.80;99.90
5870;DHT22;2961;47.702;9.410;2022-07-29T11:02:43;22.80;99.90
5870;DHT22;2961;47.702;9.410;2022-07-29T11:05:11;22.80;99.90
5870;DHT22;2961;47.702;9.410;2022-07-29T11:08:19;22.70;99.90
5870;DHT22;2961;47.702;9.410;2022-07-29T11:10:49;22.60;99.90
5870;DHT22;2961;47.702;9.410;2022-07-29T11:16:23;22.40;99.90
5870;DHT22;2961;47.702;9.410;2022-07-29T11:19:19;22.30;99.90
5870;DHT22;2961;47.702;9.410;2022-07-29T11:21:46;22.30;99.90
5870;DHT22;2961;47.702;9.410;2022-07-29T11:24:18;22.40;99.90
5870;DHT22;2961;47.702;9.410;2022-07-29T11:27:06;22.50;99.90
5870;DHT22;2961;47.702;9.410;2022-07-29T11:29:35;22.50;99.90
5870;DHT22;2961;47.702;9.410;2022-07-29T11:32:08;22.60;99.90
5870;DHT22;2961;47.702;9.410;2022-07-29T11:34:36;22.80;99.90
5870;DHT22;2961;47.702;9.410;2022-07-29T11:37:19;23.10;99.90
5870;DHT22;2961;47.702;9.410;2022-07-29T11:40:09;23.60;99.90
5870;DHT22;2961;47.702;9.410;2022-07-29T11:42:38;23.70;99.90
5870;DHT22;2961;47.702;9.410;2022-07-29T11:45:06;23.90;99.90
5870;DHT22;2961;47.702;9.410;2022-07-29T11:47:36;24.10;99.90
5870;DHT22;2961;47.702;9.410;2022-07-29T11:50:06;24.20;99.90
5870;DHT22;2961;47.702;9.410;2022-07-29T11:52:35;24.30;99.90
5870;DHT22;2961;47.702;9.410;2022-07-29T11:55:05;24.40;99.90
5870;DHT22;2961;47.702;9.410;2022-07-29T11:57:34;24.50;99.90
5870;DHT22;2961;47.702;9.410;2022-07-29T12:00:02;24.40;99.90
5870;DHT22;2961;47.702;9.410;2022-07-29T12:02:38;24.20;99.90
5870;DHT22;2961;47.702;9.410;2022-07-29T12:05:08;24.30;99.90
5870;DHT22;2961;47.702;9.410;2022-07-29T12:07:35;24.30;99.90
5870;DHT22;2961;47.702;9.410;2022-07-29T12:10:04;24.40;99.90
5870;DHT22;2961;47.702;9.410;2022-07-29T12:12:32;24.60;99.90
5870;DHT22;2961;47.702;9.410;2022-07-29T12:15:10;24.80;99.90
5870;DHT22;2961;47.702;9.410;2022-07-29T12:17:37;25.10;99.90
5870;DHT22;2961;47.702;9.410;2022-07-29T12:20:05;25.20;99.90
5870;DHT22;2961;47.702;9.410;2022-07-29T12:22:34;25.20;99.90
5870;DHT22;2961;47.702;9.410;2022-07-29T12:25:05;25.00;99.90
5870;DHT22;2961;47.702;9.410;2022-07-29T12:27:33;24.90;99.90
5870;DHT22;2961;47.702;9.410;2022-07-29T12:30:02;25.00;99.90
5870;DHT22;2961;47.702;9.410;2022-07-29T12:32:33;25.20;99.90
5870;DHT22;2961;47.702;9.410;2022-07-29T12:35:03;25.30;99.90
5870;DHT22;2961;47.702;9.410;2022-07-29T12:37:30;25.40;99.90
5870;DHT22;2961;47.702;9.410;2022-07-29T12:39:57;25.60;99.90
5870;DHT22;2961;47.702;9.410;2022-07-29T12:42:26;25.50;99.90
5870;DHT22;2961;47.702;9.410;2022-07-29T12:44:53;25.50;99.90
5870;DHT22;2961;47.702;9.410;2022-07-29T12:47:22;25.60;99.90
5870;DHT22;2961;47.702;9.410;2022-07-29T12:49:50;25.60;99.90
5870;DHT22;2961;47.702;9.410;2022-07-29T12:52:27;25.60;99.90
5870;DHT22;2961;47.702;9.410;2022-07-29T12:54:54;25.60;99.90
5870;DHT22;2961;47.702;9.410;2022-07-29T12:57:21;25.70;99.90
5870;DHT22;2961;47.702;9.410;2022-07-29T13:00:06;25.80;99.90
5870;DHT22;2961;47.702;9.410;2022-07-29T13:02:36;25.70;99.90
5870;DHT22;2961;47.702;9.410;2022-07-29T13:05:05;25.80;99.90
5870;DHT22;2961;47.702;9.410;2022-07-29T13:07:34;25.80;99.90
5870;DHT22;2961;47.702;9.410;2022-07-29T13:10:13;25.70;99.90
5870;DHT22;2961;47.702;9.410;2022-07-29T13:13:01;25.70;99.90
5870;DHT22;2961;47.702;9.410;2022-07-29T13:15:30;25.50;99.90
5870;DHT22;2961;47.702;9.410;2022-07-29T13:17:57;25.50;99.90
5870;DHT22;2961;47.702;9.410;2022-07-29T13:20:25;25.50;99.90
5870;DHT22;2961;47.702;9.410;2022-07-29T13:22:53;25.60;99.90
5870;DHT22;2961;47.702;9.410;2022-07-29T13:25:24;25.70;99.90
5870;DHT22;2961;47.702;9.410;2022-07-29T13:27:51;25.80;99.90
5870;DHT22;2961;47.702;9.410;2022-07-29T13:30:20;25.80;99.90
5870;DHT22;2961;47.702;9.410;2022-07-29T13:32:49;25.80;99.90
5870;DHT22;2961;47.702;9.410;2022-07-29T13:35:16;25.90;99.90
5870;DHT22;2961;47.702;9.410;2022-07-29T13:37:44;25.80;99.90
5870;DHT22;2961;47.702;9.410;2022-07-29T13:40:11;25.80;99.90
5870;DHT22;2961;47.702;9.410;2022-07-29T13:42:39;25.80;99.90
5870;DHT22;2961;47.702;9.410;2022-07-29T13:45:08;25.90;99.90
5870;DHT22;2961;47.702;9.410;2022-07-29T13:47:35;25.80;99.90
5870;DHT22;2961;47.702;9.410;2022-07-29T13:50:05;25.80;99.90
5870;DHT22;2961;47.702;9.410;2022-07-29T13:52:44;25.70;99.90
5870;DHT22;2961;47.702;9.410;2022-07-29T13:55:12;25.60;99.90
5870;DHT22;2961;47.702;9.410;2022-07-29T13:57:39;25.60;99.90
5870;DHT22;2961;47.702;9.410;2022-07-29T14:00:07;25.70;99.90
5870;DHT22;2961;47.702;9.410;2022-07-29T14:02:34;25.60;99.90
5870;DHT22;2961;47.702;9.410;2022-07-29T14:05:02;25.80;99.90
5870;DHT22;2961;47.702;9.410;2022-07-29T14:07:38;25.80;99.90
5870;DHT22;2961;47.702;9.410;2022-07-29T14:10:06;25.70;99.90
5870;DHT22;2961;47.702;9.410;2022-07-29T14:12:33;25.80;99.90
5870;DHT22;2961;47.702;9.410;2022-07-29T14:15:00;25.70;99.90
5870;DHT22;2961;47.702;9.410;2022-07-29T14:17:27;25.70;99.90
5870;DHT22;2961;47.702;9.410;2022-07-29T14:19:54;25.60;99.90
5870;DHT22;2961;47.702;9.410;2022-07-29T14:22:22;25.60;99.90
5870;DHT22;2961;47.702;9.410;2022-07-29T14:24:50;25.60;99.90
5870;DHT22;2961;47.702;9.410;2022-07-29T14:27:17;25.50;99.90
5870;DHT22;2961;47.702;9.410;2022-07-29T14:29:44;25.30;99.90
5870;DHT22;2961;47.702;9.410;2022-07-29T14:32:11;25.30;99.90
5870;DHT22;2961;47.702;9.410;2022-07-29T14:34:40;25.20;99.90
5870;DHT22;2961;47.702;9.410;2022-07-29T14:37:07;25.10;99.90
5870;DHT22;2961;47.702;9.410;2022-07-29T14:39:35;24.90;99.90
5870;DHT22;2961;47.702;9.410;2022-07-29T14:42:02;24.70;99.90
5870;DHT22;2961;47.702;9.410;2022-07-29T14:44:29;24.40;99.90
5870;DHT22;2961;47.702;9.410;2022-07-29T14:46:56;24.30;99.90
5870;DHT22;2961;47.702;9.410;2022-07-29T14:49:23;24.10;99.90
5870;DHT22;2961;47.702;9.410;2022-07-29T14:51:50;24.00;99.90
5870;DHT22;2961;47.702;9.410;2022-07-29T14:54:17;23.70;99.90
5870;DHT22;2961;47.702;9.410;2022-07-29T14:56:45;23.40;99.90
5870;DHT22;2961;47.702;9.410;2022-07-29T14:59:12;23.10;99.90
5870;DHT22;2961;47.702;9.410;2022-07-29T15:01:39;22.80;99.90
5870;DHT22;2961;47.702;9.410;2022-07-29T15:04:05;22.50;99.90
5870;DHT22;2961;47.702;9.410;2022-07-29T15:06:32;22.20;99.90
5870;DHT22;2961;47.702;9.410;2022-07-29T15:08:59;21.90;99.90
5870;DHT22;2961;47.702;9.410;2022-07-29T15:11:26;21.60;99.90
5870;DHT22;2961;47.702;9.410;2022-07-29T15:13:54;21.30;99.90
5870;DHT22;2961;47.702;9.410;2022-07-29T15:16:21;21.20;99.90
5870;DHT22;2961;47.702;9.410;2022-07-29T15:18:48;21.20;99.90
5870;DHT22;2961;47.702;9.410;2022-07-29T15:21:15;21.20;99.90
5870;DHT22;2961;47.702;9.410;2022-07-29T15:23:41;21.30;99.90
5870;DHT22;2961;47.702;9.410;2022-07-29T15:26:08;21.40;99.90
5870;DHT22;2961;47.702;9.410;2022-07-29T15:28:35;21.50;99.90
5870;DHT22;2961;47.702;9.410;2022-07-29T15:31:03;21.50;99.90
5870;DHT22;2961;47.702;9.410;2022-07-29T15:33:30;21.50;99.90
5870;DHT22;2961;47.702;9.410;2022-07-29T15:35:57;21.50;99.90
5870;DHT22;2961;47.702;9.410;2022-07-29T15:38:24;21.50;99.90
5870;DHT22;2961;47.702;9.410;2022-07-29T15:40:50;21.40;99.90
5870;DHT22;2961;47.702;9.410;2022-07-29T15:43:17;21.40;99.90
5870;DHT22;2961;47.702;9.410;2022-07-29T15:45:44;21.40;99.90
5870;DHT22;2961;47.702;9.410;2022-07-29T15:48:33;21.40;99.90
5870;DHT22;2961;47.702;9.410;2022-07-29T15:50:59;21.30;99.90
5870;DHT22;2961;47.702;9.410;2022-07-29T15:53:26;21.30;99.90
5870;DHT22;2961;47.702;9.410;2022-07-29T15:55:54;21.20;99.90
5870;DHT22;2961;47.702;9.410;2022-07-29T15:58:21;21.10;99.90
5870;DHT22;2961;47.702;9.410;2022-07-29T16:00:48;21.10;99.90
5870;DHT22;2961;47.702;9.410;2022-07-29T16:03:15;21.00;99.90
5870;DHT22;2961;47.702;9.410;2022-07-29T16:05:43;20.90;99.90
5870;DHT22;2961;47.702;9.410;2022-07-29T16:08:10;20.90;99.90
5870;DHT22;2961;47.702;9.410;2022-07-29T16:10:37;20.80;99.90
5870;DHT22;2961;47.702;9.410;2022-07-29T16:13:04;20.60;99.90
5870;DHT22;2961;47.702;9.410;2022-07-29T16:15:31;20.50;99.90
5870;DHT22;2961;47.702;9.410;2022-07-29T16:17:58;20.40;99.90
5870;DHT22;2961;47.702;9.410;2022-07-29T16:20:25;20.30;99.90